sensor_id;sensor_type;location;lat;lon;timestamp;pressure;altitude;pressure_sealevel;temperature;humidity
19600;BME280;9947;57.722;12.012;2022-11-27T00:00:09;102260.22;;;5.63;100.00
19600;BME280;9947;57.722;12.012;2022-11-27T00:02:37;102260.38;;;5.58;100.00
19600;BME280;9947;57.722;12.012;2022-11-27T00:05:04;102256.84;;;5.56;100.00
19600;BME280;9947;57.722;12.012;2022-11-27T00:07:32;102254.38;;;5.50;100.00
19600;BME280;9947;57.722;12.012;2022-11-27T00:09:59;102261.09;;;5.63;100.00
19600;BME280;9947;57.722;12.012;2022-11-27T00:12:27;102264.19;;;5.51;100.00
19600;BME280;9947;57.722;12.012;2022-11-27T00:14:53;102271.41;;;5.49;100.00
19600;BME280;9947;57.722;12.012;2022-11-27T00:17:20;102267.69;;;5.53;100.00
19600;BME280;9947;57.722;12.012;2022-11-27T00:19:47;102264.66;;;5.64;100.00
19600;BME280;9947;57.722;12.012;2022-11-27T00:22:17;102262.91;;;5.63;100.00
19600;BME280;9947;57.722;12.012;2022-11-27T00:24:43;102254.81;;;5.64;100.00
19600;BME280;9947;57.722;12.012;2022-11-27T00:27:10;102253.16;;;5.60;100.00
19600;BME280;9947;57.722;12.012;2022-11-27T00:29:39;102253.34;;;5.54;100.00
19600;BME280;9947;57.722;12.012;2022-11-27T00:32:05;102259.53;;;5.56;100.00
19600;BME280;9947;57.722;12.012;2022-11-27T00:34:32;102263.06;;;5.58;100.00
19600;BME280;9947;57.722;12.012;2022-11-27T00:36:59;102252.22;;;5.61;100.00
19600;BME280;9947;57.722;12.012;2022-11-27T00:39:26;102257.53;;;5.63;100.00
19600;BME280;9947;57.722;12.012;2022-11-27T00:41:53;102268.06;;;5.69;100.00
19600;BME280;9947;57.722;12.012;2022-11-27T00:44:20;102261.91;;;5.65;100.00
19600;BME280;9947;57.722;12.012;2022-11-27T00:46:48;102265.16;;;5.76;100.00
19600;BME280;9947;57.722;12.012;2022-11-27T00:49:15;102275.84;;;5.78;100.00
19600;BME280;9947;57.722;12.012;2022-11-27T00:51:42;102268.66;;;5.78;100.00
19600;BME280;9947;57.722;12.012;2022-11-27T00:54:09;102258.09;;;5.74;100.00
19600;BME280;9947;57.722;12.012;2022-11-27T00:56:37;102264.13;;;5.80;100.00
19600;BME280;9947;57.722;12.012;2022-11-27T00:59:05;102263.97;;;5.85;100.00
19600;BME280;9947;57.722;12.012;2022-11-27T01:01:34;102270.53;;;5.76;100.00
19600;BME280;9947;57.722;12.012;2022-11-27T01:04:04;102255.72;;;5.63;100.00
19600;BME280;9947;57.722;12.012;2022-11-27T01:06:32;102261.91;;;5.65;100.00
19600;BME280;9947;57.722;12.012;2022-11-27T01:08:59;102268.88;;;5.71;100.00
19600;BME280;9947;57.722;12.012;2022-11-27T01:11:27;102262.75;;;5.67;100.00
19600;BME280;9947;57.722;12.012;2022-11-27T01:13:57;102257.28;;;5.70;100.00
19600;BME280;9947;57.722;12.012;2022-11-27T01:16:27;102255.63;;;5.66;100.00
19600;BME280;9947;57.722;12.012;2022-11-27T01:18:56;102249.47;;;5.63;100.00
19600;BME280;9947;57.722;12.012;2022-11-27T01:21:26;102247.09;;;5.53;100.00
19600;BME280;9947;57.722;12.012;2022-11-27T01:23:53;102256.03;;;5.54;100.00
19600;BME280;9947;57.722;12.012;2022-11-27T01:26:21;102256.91;;;5.54;100.00
19600;BME280;9947;57.722;12.012;2022-11-27T01:28:51;102250.56;;;5.57;100.00
19600;BME280;9947;57.722;12.012;2022-11-27T01:31:20;102248.81;;;5.56;100.00
19600;BME280;9947;57.722;12.012;2022-11-27T01:33:51;102249.78;;;5.53;100.00
19600;BME280;9947;57.722;12.012;2022-11-27T01:36:18;102244.28;;;5.58;100.00
19600;BME280;9947;57.722;12.012;2022-11-27T01:38:47;102236.53;;;5.49;100.00
19600;BME280;9947;57.722;12.012;2022-11-27T01:41:16;102233.50;;;5.60;100.00
19600;BME280;9947;57.722;12.012;2022-11-27T01:43:45;102227.78;;;5.42;100.00
19600;BME280;9947;57.722;12.012;2022-11-27T01:46:27;102226.91;;;5.42;100.00
19600;BME280;9947;57.722;12.012;2022-11-27T01:49:02;102218.84;;;5.42;100.00
19600;BME280;9947;57.722;12.012;2022-11-27T01:51:30;102212.56;;;5.43;100.00
19600;BME280;9947;57.722;12.012;2022-11-27T01:53:59;102213.38;;;5.45;100.00
19600;BME280;9947;57.722;12.012;2022-11-27T01:56:27;102211.78;;;5.39;100.00
19600;BME280;9947;57.722;12.012;2022-11-27T01:58:55;102201.41;;;5.29;100.00
19600;BME280;9947;57.722;12.012;2022-11-27T02:01:23;102211.16;;;5.31;100.00
19600;BME280;9947;57.722;12.012;2022-11-27T02:03:51;102210.91;;;5.39;100.00
19600;BME280;9947;57.722;12.012;2022-11-27T02:06:18;102201.38;;;5.30;100.00
19600;BME280;9947;57.722;12.012;2022-11-27T02:08:45;102185.22;;;5.32;100.00
19600;BME280;9947;57.722;12.012;2022-11-27T02:11:18;102182.66;;;5.29;100.00
19600;BME280;9947;57.722;12.012;2022-11-27T02:13:52;102185.53;;;5.22;100.00
19600;BME280;9947;57.722;12.012;2022-11-27T02:16:27;102170.16;;;5.28;100.00
19600;BME280;9947;57.722;12.012;2022-11-27T02:18:59;102160.56;;;5.20;100.00
19600;BME280;9947;57.722;12.012;2022-11-27T02:21:34;102156.19;;;5.16;100.00
19600;BME280;9947;57.722;12.012;2022-11-27T02:24:22;102144.47;;;5.20;100.00
19600;BME280;9947;57.722;12.012;2022-11-27T02:27:26;102145.25;;;5.24;100.00
19600;BME280;9947;57.722;12.012;2022-11-27T02:30:00;102142.56;;;5.24;100.00
19600;BME280;9947;57.722;12.012;2022-11-27T02:32:34;102140.94;;;5.18;100.00
19600;BME280;9947;57.722;12.012;2022-11-27T02:35:10;102156.25;;;5.15;100.00
19600;BME280;9947;57.722;12.012;2022-11-27T02:37:43;102161.41;;;5.22;100.00
19600;BME280;9947;57.722;12.012;2022-11-27T02:40:14;102166.81;;;5.21;100.00
19600;BME280;9947;57.722;12.012;2022-11-27T02:42:47;102152.53;;;5.20;100.00
19600;BME280;9947;57.722;12.012;2022-11-27T02:45:20;102142.47;;;5.27;100.00
19600;BME280;9947;57.722;12.012;2022-11-27T02:47:49;102133.75;;;5.20;100.00
19600;BME280;9947;57.722;12.012;2022-11-27T02:50:21;102138.19;;;5.21;100.00
19600;BME280;9947;57.722;12.012;2022-11-27T02:52:54;102142.47;;;5.27;100.00
19600;BME280;9947;57.722;12.012;2022-11-27T02:55:25;102140.88;;;5.21;100.00
19600;BME280;9947;57.722;12.012;2022-11-27T02:57:55;102140.72;;;5.26;100.00
19600;BME280;9947;57.722;12.012;2022-11-27T03:00:25;102142.44;;;5.29;100.00
19600;BME280;9947;57.722;12.012;2022-11-27T03:02:54;102145.00;;;5.32;100.00
19600;BME280;9947;57.722;12.012;2022-11-27T03:05:28;102140.81;;;5.23;100.00
19600;BME280;9947;57.722;12.012;2022-11-27T03:08:01;102142.53;;;5.25;100.00
19600;BME280;9947;57.722;12.012;2022-11-27T03:10:33;102141.66;;;5.25;100.00
19600;BME280;9947;57.722;12.012;2022-11-27T03:13:04;102134.44;;;5.27;100.00
19600;BME280;9947;57.722;12.012;2022-11-27T03:15:38;102139.78;;;5.27;100.00
19600;BME280;9947;57.722;12.012;2022-11-27T03:18:11;102141.53;;;5.28;100.00
19600;BME280;9947;57.722;12.012;2022-11-27T03:20:40;102150.41;;;5.30;100.00
19600;BME280;9947;57.722;12.012;2022-11-27T03:23:08;102159.84;;;5.42;100.00
19600;BME280;9947;57.722;12.012;2022-11-27T03:25:35;102171.28;;;5.48;100.00
19600;BME280;9947;57.722;12.012;2022-11-27T03:28:07;102167.47;;;5.55;100.00
19600;BME280;9947;57.722;12.012;2022-11-27T03:30:36;102168.38;;;5.54;100.00
19600;BME280;9947;57.722;12.012;2022-11-27T03:33:05;102168.50;;;5.51;100.00
19600;BME280;9947;57.722;12.012;2022-11-27T03:35:34;102163.97;;;5.53;100.00
19600;BME280;9947;57.722;12.012;2022-11-27T03:38:01;102164.84;;;5.54;100.00
19600;BME280;9947;57.722;12.012;2022-11-27T03:40:32;102166.59;;;5.55;100.00
19600;BME280;9947;57.722;12.012;2022-11-27T03:43:03;102157.81;;;5.50;100.00
19600;BME280;9947;57.722;12.012;2022-11-27T03:45:41;102155.66;;;5.61;100.00
19600;BME280;9947;57.722;12.012;2022-11-27T03:48:19;102163.91;;;5.55;100.00
19600;BME280;9947;57.722;12.012;2022-11-27T03:50:58;102159.38;;;5.57;100.00
19600;BME280;9947;57.722;12.012;2022-11-27T03:53:35;102157.72;;;5.53;100.00
19600;BME280;9947;57.722;12.012;2022-11-27T03:56:12;102159.38;;;5.57;100.00
19600;BME280;9947;57.722;12.012;2022-11-27T03:58:46;102157.72;;;5.53;100.00
19600;BME280;9947;57.722;12.012;2022-11-27T04:01:19;102156.69;;;5.57;100.00
19600;BME280;9947;57.722;12.012;2022-11-27T04:03:48;102149.63;;;5.54;100.00
19600;BME280;9947;57.722;12.012;2022-11-27T04:06:15;102147.38;;;5.41;100.00
19600;BME280;9947;57.722;12.012;2022-11-27T04:08:43;102138.59;;;5.36;100.00
19600;BME280;9947;57.722;12.012;2022-11-27T04:11:11;102138.41;;;5.42;100.00
19600;BME280;9947;57.722;12.012;2022-11-27T04:13:41;102147.25;;;5.44;100.00
19600;BME280;9947;57.722;12.012;2022-11-27T04:16:08;102145.50;;;5.43;100.00
19600;BME280;9947;57.722;12.012;2022-11-27T04:18:36;102138.41;;;5.42;100.00
19600;BME280;9947;57.722;12.012;2022-11-27T04:21:05;102136.50;;;5.45;100.00
19600;BME280;9947;57.722;12.012;2022-11-27T04:23:32;102140.09;;;5.44;100.00
19600;BME280;9947;57.722;12.012;2022-11-27T04:25:59;102144.50;;;5.47;100.00
19600;BME280;9947;57.722;12.012;2022-11-27T04:28:26;102149.13;;;5.42;100.00
19600;BME280;9947;57.722;12.012;2022-11-27T04:30:53;102149.81;;;5.48;100.00
19600;BME280;9947;57.722;12.012;2022-11-27T04:33:20;102149.91;;;5.45;100.00
19600;BME280;9947;57.722;12.012;2022-11-27T04:35:48;102149.06;;;5.43;100.00
19600;BME280;9947;57.722;12.012;2022-11-27T04:38:15;102150.97;;;5.40;100.00
19600;BME280;9947;57.722;12.012;2022-11-27T04:40:42;102162.13;;;5.28;100.00
19600;BME280;9947;57.722;12.012;2022-11-27T04:43:09;102153.78;;;5.37;100.00
19600;BME280;9947;57.722;12.012;2022-11-27T04:45:36;102156.13;;;5.47;100.00
19600;BME280;9947;57.722;12.012;2022-11-27T04:48:03;102149.13;;;5.42;100.00
19600;BME280;9947;57.722;12.012;2022-11-27T04:50:30;102144.75;;;5.39;100.00
19600;BME280;9947;57.722;12.012;2022-11-27T04:52:58;102150.06;;;5.41;100.00
19600;BME280;9947;57.722;12.012;2022-11-27T04:55:25;102143.75;;;5.42;100.00
19600;BME280;9947;57.722;12.012;2022-11-27T04:57:52;102138.44;;;5.40;100.00
19600;BME280;9947;57.722;12.012;2022-11-27T05:00:20;102133.09;;;5.40;100.00
19600;BME280;9947;57.722;12.012;2022-11-27T05:02:49;102127.72;;;5.40;100.00
19600;BME280;9947;57.722;12.012;2022-11-27T05:05:16;102124.16;;;5.40;100.00
19600;BME280;9947;57.722;12.012;2022-11-27T05:07:43;102120.81;;;5.33;100.00
19600;BME280;9947;57.722;12.012;2022-11-27T05:10:11;102115.56;;;5.30;100.00
19600;BME280;9947;57.722;12.012;2022-11-27T05:12:38;102122.69;;;5.31;100.00
19600;BME280;9947;57.722;12.012;2022-11-27T05:15:06;102128.09;;;5.30;100.00
19600;BME280;9947;57.722;12.012;2022-11-27T05:17:34;102123.72;;;5.27;100.00
19600;BME280;9947;57.722;12.012;2022-11-27T05:20:00;102117.25;;;5.33;100.00
19600;BME280;9947;57.722;12.012;2022-11-27T05:22:29;102116.34;;;5.34;100.00
19600;BME280;9947;57.722;12.012;2022-11-27T05:24:55;102121.69;;;5.34;100.00
19600;BME280;9947;57.722;12.012;2022-11-27T05:27:23;102117.06;;;5.39;100.00
19600;BME280;9947;57.722;12.012;2022-11-27T05:29:50;102118.13;;;5.33;100.00
19600;BME280;9947;57.722;12.012;2022-11-27T05:32:17;102118.25;;;5.30;100.00
19600;BME280;9947;57.722;12.012;2022-11-27T05:34:44;102110.31;;;5.27;100.00
19600;BME280;9947;57.722;12.012;2022-11-27T05:37:12;102106.03;;;5.21;100.00
19600;BME280;9947;57.722;12.012;2022-11-27T05:39:39;102101.59;;;5.19;100.00
19600;BME280;9947;57.722;12.012;2022-11-27T05:42:06;102105.28;;;5.16;100.00
19600;BME280;9947;57.722;12.012;2022-11-27T05:44:34;102119.59;;;5.15;100.00
19600;BME280;9947;57.722;12.012;2022-11-27T05:47:01;102110.53;;;5.19;100.00
19600;BME280;9947;57.722;12.012;2022-11-27T05:49:28;102108.78;;;5.18;100.00
19600;BME280;9947;57.722;12.012;2022-11-27T05:51:54;102108.66;;;5.23;100.00
19600;BME280;9947;57.722;12.012;2022-11-27T05:54:21;102113.22;;;5.19;100.00
19600;BME280;9947;57.722;12.012;2022-11-27T05:56:48;102114.78;;;5.26;100.00
19600;BME280;9947;57.722;12.012;2022-11-27T05:59:15;102104.94;;;5.27;100.00
19600;BME280;9947;57.722;12.012;2022-11-27T06:01:43;102098.75;;;5.25;100.00
19600;BME280;9947;57.722;12.012;2022-11-27T06:04:10;102099.63;;;5.25;100.00
19600;BME280;9947;57.722;12.012;2022-11-27T06:06:36;102082.63;;;5.26;100.00
19600;BME280;9947;57.722;12.012;2022-11-27T06:09:03;102077.34;;;5.23;100.00
19600;BME280;9947;57.722;12.012;2022-11-27T06:11:30;102080.91;;;5.24;100.00
19600;BME280;9947;57.722;12.012;2022-11-27T06:13:57;102087.66;;;5.36;100.00
19600;BME280;9947;57.722;12.012;2022-11-27T06:16:23;102086.72;;;5.37;100.00
19600;BME280;9947;57.722;12.012;2022-11-27T06:18:53;102092.09;;;5.37;100.00
19600;BME280;9947;57.722;12.012;2022-11-27T06:21:21;102093.91;;;5.36;100.00
19600;BME280;9947;57.722;12.012;2022-11-27T06:23:52;102091.22;;;5.36;100.00
19600;BME280;9947;57.722;12.012;2022-11-27T06:26:21;102095.66;;;5.37;100.00
19600;BME280;9947;57.722;12.012;2022-11-27T06:28:49;102094.72;;;5.38;100.00
19600;BME280;9947;57.722;12.012;2022-11-27T06:31:17;102102.59;;;5.43;100.00
19600;BME280;9947;57.722;12.012;2022-11-27T06:33:44;102095.03;;;5.29;100.00
19600;BME280;9947;57.722;12.012;2022-11-27T06:36:13;102098.53;;;5.31;100.00
19600;BME280;9947;57.722;12.012;2022-11-27T06:38:39;102098.38;;;5.36;100.00
19600;BME280;9947;57.722;12.012;2022-11-27T06:41:08;102095.75;;;5.34;100.00
19600;BME280;9947;57.722;12.012;2022-11-27T06:43:36;102093.78;;;5.39;100.00
19600;BME280;9947;57.722;12.012;2022-11-27T06:46:04;102099.38;;;5.33;100.00
19600;BME280;9947;57.722;12.012;2022-11-27T06:48:31;102086.13;;;5.29;100.00
19600;BME280;9947;57.722;12.012;2022-11-27T06:50:59;102089.69;;;5.29;100.00
19600;BME280;9947;57.722;12.012;2022-11-27T06:53:28;102093.28;;;5.28;100.00
19600;BME280;9947;57.722;12.012;2022-11-27T06:55:55;102098.53;;;5.31;100.00
19600;BME280;9947;57.722;12.012;2022-11-27T06:58:23;102097.47;;;5.37;100.00
19600;BME280;9947;57.722;12.012;2022-11-27T07:00:56;102093.91;;;5.36;100.00
19600;BME280;9947;57.722;12.012;2022-11-27T07:03:23;102095.91;;;5.30;100.00
19600;BME280;9947;57.722;12.012;2022-11-27T07:05:50;102096.78;;;5.30;100.00
19600;BME280;9947;57.722;12.012;2022-11-27T07:08:16;102095.16;;;5.26;100.00
19600;BME280;9947;57.722;12.012;2022-11-27T07:10:45;102097.00;;;5.24;100.00
19600;BME280;9947;57.722;12.012;2022-11-27T07:13:11;102096.03;;;5.26;100.00
19600;BME280;9947;57.722;12.012;2022-11-27T07:15:38;102095.00;;;5.31;100.00
19600;BME280;9947;57.722;12.012;2022-11-27T07:18:05;102095.97;;;5.28;100.00
19600;BME280;9947;57.722;12.012;2022-11-27T07:20:32;102090.66;;;5.26;100.00
19600;BME280;9947;57.722;12.012;2022-11-27T07:22:59;102089.72;;;5.28;100.00
19600;BME280;9947;57.722;12.012;2022-11-27T07:25:26;102087.09;;;5.26;100.00
19600;BME280;9947;57.722;12.012;2022-11-27T07:27:54;102095.09;;;5.28;100.00
19600;BME280;9947;57.722;12.012;2022-11-27T07:30:21;102100.34;;;5.31;100.00
19600;BME280;9947;57.722;12.012;2022-11-27T07:32:48;102097.78;;;5.28;100.00
19600;BME280;9947;57.722;12.012;2022-11-27T07:35:15;102099.47;;;5.30;100.00
19600;BME280;9947;57.722;12.012;2022-11-27T07:37:41;102092.41;;;5.28;100.00
19600;BME280;9947;57.722;12.012;2022-11-27T07:40:08;102095.00;;;5.31;100.00
19600;BME280;9947;57.722;12.012;2022-11-27T07:42:35;102086.41;;;5.19;100.00
19600;BME280;9947;57.722;12.012;2022-11-27T07:45:04;102093.66;;;5.16;100.00
19600;BME280;9947;57.722;12.012;2022-11-27T07:47:31;102092.69;;;5.18;100.00
19600;BME280;9947;57.722;12.012;2022-11-27T07:49:58;102098.94;;;5.19;100.00
19600;BME280;9947;57.722;12.012;2022-11-27T07:52:25;102108.78;;;5.18;100.00
19600;BME280;9947;57.722;12.012;2022-11-27T07:54:52;102094.69;;;5.12;100.00
19600;BME280;9947;57.722;12.012;2022-11-27T07:57:19;102103.34;;;5.21;100.00
19600;BME280;9947;57.722;12.012;2022-11-27T07:59:46;102097.97;;;5.21;100.00
19600;BME280;9947;57.722;12.012;2022-11-27T08:02:14;102103.38;;;5.20;100.00
19600;BME280;9947;57.722;12.012;2022-11-27T08:04:40;102101.44;;;5.25;100.00
19600;BME280;9947;57.722;12.012;2022-11-27T08:07:07;102090.66;;;5.26;100.00
19600;BME280;9947;57.722;12.012;2022-11-27T08:09:34;102094.44;;;5.21;100.00
19600;BME280;9947;57.722;12.012;2022-11-27T08:12:02;102095.91;;;5.30;100.00
19600;BME280;9947;57.722;12.012;2022-11-27T08:14:29;102093.91;;;5.36;100.00
19600;BME280;9947;57.722;12.012;2022-11-27T08:16:55;102097.13;;;5.46;100.00
19600;BME280;9947;57.722;12.012;2022-11-27T08:19:24;102100.91;;;5.40;100.00
19600;BME280;9947;57.722;12.012;2022-11-27T08:21:50;102103.63;;;5.39;100.00
19600;BME280;9947;57.722;12.012;2022-11-27T08:24:17;102100.81;;;5.43;100.00
19600;BME280;9947;57.722;12.012;2022-11-27T08:26:45;102096.31;;;5.44;100.00
19600;BME280;9947;57.722;12.012;2022-11-27T08:29:11;102092.81;;;5.42;100.00
19600;BME280;9947;57.722;12.012;2022-11-27T08:31:38;102091.00;;;5.42;100.00
19600;BME280;9947;57.722;12.012;2022-11-27T08:34:07;102089.94;;;5.48;100.00
19600;BME280;9947;57.722;12.012;2022-11-27T08:36:35;102096.25;;;5.47;100.00
19600;BME280;9947;57.722;12.012;2022-11-27T08:39:02;102095.31;;;5.48;100.00
19600;BME280;9947;57.722;12.012;2022-11-27T08:41:30;102088.91;;;5.52;100.00
19600;BME280;9947;57.722;12.012;2022-11-27T08:43:57;102093.41;;;5.51;100.00
19600;BME280;9947;57.722;12.012;2022-11-27T08:46:24;102084.25;;;5.57;100.00
19600;BME280;9947;57.722;12.012;2022-11-27T08:48:50;102078.44;;;5.69;100.00
19600;BME280;9947;57.722;12.012;2022-11-27T08:51:17;102075.00;;;5.66;100.00
19600;BME280;9947;57.722;12.012;2022-11-27T08:53:46;102076.44;;;5.76;100.00
19600;BME280;9947;57.722;12.012;2022-11-27T08:56:16;102060.47;;;5.73;100.00
19600;BME280;9947;57.722;12.012;2022-11-27T08:58:43;102062.63;;;5.86;100.00
19600;BME280;9947;57.722;12.012;2022-11-27T09:01:13;102058.69;;;5.72;100.00
19600;BME280;9947;57.722;12.012;2022-11-27T09:03:40;102069.28;;;5.76;100.00
19600;BME280;9947;57.722;12.012;2022-11-27T09:06:09;102055.28;;;5.67;100.00
19600;BME280;9947;57.722;12.012;2022-11-27T09:08:36;102051.72;;;5.66;100.00
19600;BME280;9947;57.722;12.012;2022-11-27T09:11:05;102053.44;;;5.69;100.00
19600;BME280;9947;57.722;12.012;2022-11-27T09:13:33;102057.91;;;5.68;100.00
19600;BME280;9947;57.722;12.012;2022-11-27T09:16:01;102053.28;;;5.73;100.00
19600;BME280;9947;57.722;12.012;2022-11-27T09:18:30;102049.88;;;5.68;100.00
19600;BME280;9947;57.722;12.012;2022-11-27T09:20:58;102058.34;;;5.56;100.00
19600;BME280;9947;57.722;12.012;2022-11-27T09:23:26;102058.84;;;5.67;100.00
19600;BME280;9947;57.722;12.012;2022-11-27T09:25:53;102058.13;;;5.62;100.00
19600;BME280;9947;57.722;12.012;2022-11-27T09:28:21;102053.47;;;5.67;100.00
19600;BME280;9947;57.722;12.012;2022-11-27T09:30:48;102038.25;;;5.68;100.00
19600;BME280;9947;57.722;12.012;2022-11-27T09:33:14;102042.59;;;5.72;100.00
19600;BME280;9947;57.722;12.012;2022-11-27T09:35:42;102049.91;;;5.67;100.00
19600;BME280;9947;57.722;12.012;2022-11-27T09:38:09;102055.09;;;5.73;100.00
19600;BME280;9947;57.722;12.012;2022-11-27T09:40:36;102046.38;;;5.66;100.00
19600;BME280;9947;57.722;12.012;2022-11-27T09:43:10;102036.78;;;5.59;100.00
19600;BME280;9947;57.722;12.012;2022-11-27T09:45:43;102040.47;;;5.56;100.00
19600;BME280;9947;57.722;12.012;2022-11-27T09:48:16;102039.25;;;5.65;100.00
19600;BME280;9947;57.722;12.012;2022-11-27T09:50:47;102031.47;;;5.57;100.00
19600;BME280;9947;57.722;12.012;2022-11-27T09:53:23;102038.16;;;5.71;100.00
19600;BME280;9947;57.722;12.012;2022-11-27T09:55:54;102026.41;;;5.75;100.00
19600;BME280;9947;57.722;12.012;2022-11-27T09:58:30;102013.94;;;5.72;100.00
19600;BME280;9947;57.722;12.012;2022-11-27T10:01:11;102024.66;;;5.74;100.00
19600;BME280;9947;57.722;12.012;2022-11-27T10:03:40;102007.69;;;5.72;100.00
19600;BME280;9947;57.722;12.012;2022-11-27T10:06:20;101993.28;;;5.76;100.00
19600;BME280;9947;57.722;12.012;2022-11-27T10:09:02;102004.88;;;5.76;100.00
19600;BME280;9947;57.722;12.012;2022-11-27T10:11:38;102001.56;;;5.68;100.00
19600;BME280;9947;57.722;12.012;2022-11-27T10:14:21;102000.31;;;5.78;100.00
19600;BME280;9947;57.722;12.012;2022-11-27T10:16:56;102006.50;;;5.80;100.00
19600;BME280;9947;57.722;12.012;2022-11-27T10:19:30;101991.97;;;5.86;100.00
19600;BME280;9947;57.722;12.012;2022-11-27T10:22:05;102001.91;;;5.84;100.00
19600;BME280;9947;57.722;12.012;2022-11-27T10:24:41;101986.75;;;5.83;100.00
19600;BME280;9947;57.722;12.012;2022-11-27T10:27:21;101987.34;;;5.91;100.00
19600;BME280;9947;57.722;12.012;2022-11-27T10:29:51;101986.69;;;5.84;100.00
19600;BME280;9947;57.722;12.012;2022-11-27T10:32:22;101990.53;;;5.77;100.00
19600;BME280;9947;57.722;12.012;2022-11-27T10:34:54;101989.53;;;5.80;100.00
19600;BME280;9947;57.722;12.012;2022-11-27T10:37:25;101984.44;;;5.72;100.00
19600;BME280;9947;57.722;12.012;2022-11-27T10:39:58;101987.03;;;5.75;100.00
19600;BME280;9947;57.722;12.012;2022-11-27T10:42:33;101990.28;;;5.83;100.00
19600;BME280;9947;57.722;12.012;2022-11-27T10:45:02;101983.19;;;5.82;100.00
19600;BME280;9947;57.722;12.012;2022-11-27T10:47:31;101991.00;;;5.88;100.00
19600;BME280;9947;57.722;12.012;2022-11-27T10:49:59;101987.44;;;5.88;100.00
19600;BME280;9947;57.722;12.012;2022-11-27T10:52:26;101982.69;;;5.96;100.00
19600;BME280;9947;57.722;12.012;2022-11-27T10:54:57;101987.34;;;5.91;100.00
19600;BME280;9947;57.722;12.012;2022-11-27T10:57:42;101984.81;;;5.86;100.00
19600;BME280;9947;57.722;12.012;2022-11-27T11:00:19;101982.31;;;5.82;100.00
19600;BME280;9947;57.722;12.012;2022-11-27T11:02:47;101984.94;;;5.83;100.00
19600;BME280;9947;57.722;12.012;2022-11-27T11:05:22;101982.13;;;5.86;100.00
19600;BME280;9947;57.722;12.012;2022-11-27T11:07:55;101981.00;;;5.94;100.00
19600;BME280;9947;57.722;12.012;2022-11-27T11:10:26;101985.03;;;5.80;100.00
19600;BME280;9947;57.722;12.012;2022-11-27T11:13:04;101983.25;;;5.81;100.00
19600;BME280;9947;57.722;12.012;2022-11-27T11:15:31;101972.44;;;5.82;100.00
19600;BME280;9947;57.722;12.012;2022-11-27T11:17:59;101967.69;;;5.91;100.00
19600;BME280;9947;57.722;12.012;2022-11-27T11:20:26;101963.13;;;5.93;100.00
19600;BME280;9947;57.722;12.012;2022-11-27T11:22:53;101963.25;;;5.90;100.00
19600;BME280;9947;57.722;12.012;2022-11-27T11:25:23;101950.75;;;5.88;100.00
19600;BME280;9947;57.722;12.012;2022-11-27T11:27:50;101949.84;;;5.90;100.00
19600;BME280;9947;57.722;12.012;2022-11-27T11:30:20;101954.47;;;5.84;100.00
19600;BME280;9947;57.722;12.012;2022-11-27T11:32:47;101946.16;;;5.92;100.00
19600;BME280;9947;57.722;12.012;2022-11-27T11:35:26;101936.25;;;5.94;100.00
19600;BME280;9947;57.722;12.012;2022-11-27T11:37:55;101941.47;;;5.97;100.00
19600;BME280;9947;57.722;12.012;2022-11-27T11:40:25;101941.09;;;6.08;100.00
19600;BME280;9947;57.722;12.012;2022-11-27T11:42:56;101934.16;;;6.02;100.00
19600;BME280;9947;57.722;12.012;2022-11-27T11:45:24;101936.66;;;6.07;100.00
19600;BME280;9947;57.722;12.012;2022-11-27T11:47:54;101927.84;;;6.03;100.00
19600;BME280;9947;57.722;12.012;2022-11-27T11:50:29;101922.41;;;6.05;100.00
19600;BME280;9947;57.722;12.012;2022-11-27T11:53:01;101927.84;;;6.03;100.00
19600;BME280;9947;57.722;12.012;2022-11-27T11:55:34;101927.97;;;6.00;100.00
19600;BME280;9947;57.722;12.012;2022-11-27T11:58:23;101923.41;;;6.02;100.00
19600;BME280;9947;57.722;12.012;2022-11-27T12:01:13;101927.84;;;6.03;100.00
19600;BME280;9947;57.722;12.012;2022-11-27T12:03:57;101925.97;;;6.05;100.00
19600;BME280;9947;57.722;12.012;2022-11-27T12:06:37;101918.81;;;6.06;100.00
19600;BME280;9947;57.722;12.012;2022-11-27T12:09:24;101918.91;;;6.03;100.00
19600;BME280;9947;57.722;12.012;2022-11-27T12:11:58;101914.50;;;6.02;100.00
19600;BME280;9947;57.722;12.012;2022-11-27T12:14:38;101919.97;;;5.99;100.00
19600;BME280;9947;57.722;12.012;2022-11-27T12:17:15;101924.28;;;6.03;100.00
19600;BME280;9947;57.722;12.012;2022-11-27T12:20:04;101914.69;;;5.96;100.00
19600;BME280;9947;57.722;12.012;2022-11-27T12:25:32;101906.56;;;5.99;100.00
19600;BME280;9947;57.722;12.012;2022-11-27T12:28:10;101905.66;;;5.98;100.00
19600;BME280;9947;57.722;12.012;2022-11-27T12:30:48;101902.81;;;6.03;100.00
19600;BME280;9947;57.722;12.012;2022-11-27T12:33:26;101901.22;;;5.97;100.00
19600;BME280;9947;57.722;12.012;2022-11-27T12:36:03;101899.19;;;6.04;100.00
19600;BME280;9947;57.722;12.012;2022-11-27T12:39:01;101897.78;;;5.94;100.00
19600;BME280;9947;57.722;12.012;2022-11-27T12:41:44;101890.47;;;5.99;100.00
19600;BME280;9947;57.722;12.012;2022-11-27T12:44:18;101879.13;;;5.91;100.00
19600;BME280;9947;57.722;12.012;2022-11-27T12:46:52;101886.00;;;5.98;100.00
19600;BME280;9947;57.722;12.012;2022-11-27T12:49:24;101879.06;;;5.92;100.00
19600;BME280;9947;57.722;12.012;2022-11-27T12:51:56;101889.69;;;5.95;100.00
19600;BME280;9947;57.722;12.012;2022-11-27T12:54:39;101891.53;;;5.93;100.00
19600;BME280;9947;57.722;12.012;2022-11-27T12:57:13;101895.03;;;5.95;100.00
19600;BME280;9947;57.722;12.012;2022-11-27T12:59:45;101892.63;;;5.87;100.00
19600;BME280;9947;57.722;12.012;2022-11-27T13:02:25;101889.47;;;6.01;100.00
19600;BME280;9947;57.722;12.012;2022-11-27T13:04:56;101885.97;;;5.99;100.00
19600;BME280;9947;57.722;12.012;2022-11-27T13:07:28;101878.81;;;5.98;100.00